Terminal Aerodrome Forecast
Issued by NWS

Home | Current Version | Previous Version | Text Only | Print | Product List | Glossary On
Versions: 1 2 3 4 5 6 7 8 9 10 11 12 13 14 15 16 17 18
000
FTUS42 KTAE 281120
TAFVLD
TAF
KVLD 281120Z 2812/2912 00000KT 6SM BR FEW002
      TEMPO 2812/2813 3SM BR SCT002
     FM281300 VRB04KT P6SM SCT040
     FM290000 00000KT P6SM SCT250=

USA.gov is the U.S. government's official web portal to all federal, state and local government web resources and services.